createdAt,value
2023-03-17T00:00:55.984Z,0.30
2023-03-17T00:03:52.098Z,0.30
2023-03-17T00:06:25.709Z,0.30
2023-03-17T00:09:23.027Z,0.30
2023-03-17T00:17:42.841Z,0.20
2023-03-17T00:20:16.011Z,0.35
2023-03-17T00:25:36.329Z,0.40
2023-03-17T00:28:08.923Z,0.30
2023-03-17T00:30:40.538Z,0.30
2023-03-17T00:33:36.029Z,0.20
2023-03-17T00:36:40.414Z,0.20
2023-03-17T00:42:35.991Z,0.20
2023-03-17T00:45:44.943Z,0.20
2023-03-17T00:48:44.300Z,0.20
2023-03-17T00:52:02.849Z,0.20
2023-03-17T00:54:32.955Z,0.20
2023-03-17T00:57:46.058Z,0.20
2023-03-17T01:06:48.108Z,0.20
2023-03-17T01:09:46.063Z,0.10
2023-03-17T01:12:37.009Z,0.20
2023-03-17T01:16:04.787Z,0.20
2023-03-17T01:18:49.524Z,0.10
2023-03-17T01:21:51.112Z,0.20
2023-03-17T01:24:37.396Z,0.10
2023-03-17T01:29:03.437Z,0.20
2023-03-17T01:34:07.513Z,0.20
2023-03-17T01:36:38.333Z,0.20
2023-03-17T01:42:38.954Z,0.20
2023-03-17T01:49:07.908Z,0.20
2023-03-17T01:51:55.240Z,0.20
2023-03-17T01:55:01.243Z,0.10
2023-03-17T02:04:05.284Z,0.20
2023-03-17T02:06:58.910Z,0.10
2023-03-17T02:10:10.293Z,0.20
2023-03-17T02:16:01.465Z,0.10
2023-03-17T02:18:42.617Z,0.10
2023-03-17T02:25:16.587Z,0.20
2023-03-17T02:27:48.061Z,0.20
2023-03-17T02:31:02.501Z,0.20
2023-03-17T02:37:11.106Z,0.30
2023-03-17T02:40:29.237Z,0.10
2023-03-17T02:43:11.681Z,0.13
2023-03-17T02:49:09.996Z,0.10
2023-03-17T02:51:56.760Z,0.10
2023-03-17T02:58:03.876Z,0.10
2023-03-17T03:01:07.025Z,0.10
2023-03-17T03:03:49.605Z,0.10
2023-03-17T03:09:12.571Z,0.20
2023-03-17T03:11:43.562Z,0.20
2023-03-17T03:14:14.409Z,0.10
2023-03-17T03:16:45.219Z,0.10
2023-03-17T03:19:15.556Z,0.10
2023-03-17T03:25:21.047Z,0.10
2023-03-17T03:28:17.640Z,0.10
2023-03-17T03:34:36.043Z,0.10
2023-03-17T03:37:05.890Z,0.10
2023-03-17T03:39:52.338Z,0.10
2023-03-17T03:42:22.233Z,0.10
2023-03-17T03:44:52.343Z,0.10
2023-03-17T03:47:22.391Z,0.20
2023-03-17T03:49:53.195Z,0.10
2023-03-17T03:52:43.783Z,0.10
2023-03-17T03:55:13.629Z,0.10
2023-03-17T03:57:49.177Z,0.20
2023-03-17T04:00:20.382Z,0.20
2023-03-17T04:02:51.255Z,0.10
2023-03-17T04:05:22.992Z,0.10
2023-03-17T04:07:53.156Z,0.20
2023-03-17T04:10:24.022Z,0.10
2023-03-17T04:12:56.479Z,0.20
2023-03-17T04:15:26.562Z,0.13
2023-03-17T04:17:56.467Z,0.20
2023-03-17T04:20:26.310Z,0.20
2023-03-17T04:22:56.047Z,0.20
2023-03-17T04:25:25.962Z,0.18
2023-03-17T04:28:14.374Z,0.20
2023-03-17T04:31:25.731Z,0.10
2023-03-17T04:34:42.010Z,0.15
2023-03-17T04:37:48.065Z,0.20
2023-03-17T04:40:49.575Z,0.20
2023-03-17T04:43:24.907Z,0.20
2023-03-17T04:46:16.654Z,0.20
2023-03-17T04:49:28.632Z,0.20
2023-03-17T04:55:42.495Z,0.23
2023-03-17T04:58:31.392Z,0.20
2023-03-17T05:01:29.892Z,0.17
2023-03-17T05:04:47.672Z,0.20
2023-03-17T05:07:59.146Z,0.13
2023-03-17T05:10:40.507Z,0.28
2023-03-17T05:16:44.899Z,0.20
2023-03-17T05:19:25.914Z,0.30
2023-03-17T05:25:31.883Z,0.30
2023-03-17T05:28:23.764Z,0.23
2023-03-17T05:31:26.650Z,0.23
2023-03-17T05:37:30.705Z,0.30
2023-03-17T05:40:18.398Z,0.20
2023-03-17T05:46:29.606Z,0.20
2023-03-17T05:49:04.934Z,0.30
2023-03-17T05:51:37.022Z,0.30
2023-03-17T05:54:08.034Z,0.30
2023-03-17T05:56:38.745Z,0.30
2023-03-17T05:59:09.182Z,0.20
2023-03-17T06:01:39.393Z,0.30
2023-03-17T06:04:09.452Z,0.23
2023-03-17T06:06:46.242Z,0.20
2023-03-17T06:09:16.577Z,0.20
2023-03-17T06:11:46.722Z,0.20
2023-03-17T06:14:17.075Z,0.30
2023-03-17T06:16:48.687Z,0.30
2023-03-17T06:19:18.504Z,0.20
2023-03-17T06:21:48.819Z,0.20
2023-03-17T06:24:18.977Z,0.35
2023-03-17T06:26:48.830Z,0.20
2023-03-17T06:29:18.715Z,0.30
2023-03-17T06:31:50.010Z,0.30
2023-03-17T06:34:23.686Z,0.23
2023-03-17T06:39:26.181Z,0.40
2023-03-17T06:41:56.004Z,0.32
2023-03-17T06:44:25.903Z,0.30
2023-03-17T06:46:55.937Z,0.32
2023-03-17T06:49:25.815Z,0.40
2023-03-17T06:52:03.008Z,0.34
2023-03-17T06:54:33.409Z,0.30
2023-03-17T06:57:03.472Z,0.30
2023-03-17T06:59:33.394Z,0.30
2023-03-17T07:02:03.607Z,0.30
2023-03-17T07:04:33.561Z,0.30
2023-03-17T07:07:22.318Z,0.30
2023-03-17T07:09:53.414Z,0.33
2023-03-17T07:12:24.600Z,0.30
2023-03-17T07:14:55.076Z,0.30
2023-03-17T07:17:25.975Z,0.20
2023-03-17T07:19:55.979Z,0.20
2023-03-17T07:22:25.881Z,0.30
2023-03-17T07:24:57.325Z,0.30
2023-03-17T07:27:27.879Z,0.40
2023-03-17T07:29:58.236Z,0.37
2023-03-17T07:32:28.214Z,0.30
2023-03-17T07:35:18.671Z,0.30
2023-03-17T07:38:09.173Z,0.30
2023-03-17T07:40:39.561Z,0.30
2023-03-17T07:43:30.616Z,0.35
2023-03-17T07:46:06.572Z,0.30
2023-03-17T07:48:38.273Z,0.27
2023-03-17T07:51:08.622Z,0.30
2023-03-17T07:53:38.616Z,0.28
2023-03-17T07:56:29.901Z,0.30
2023-03-17T07:59:00.010Z,0.20
2023-03-17T08:01:58.529Z,0.30
2023-03-17T08:04:08.300Z,0.20
2023-03-17T08:06:38.304Z,0.30
2023-03-17T08:09:08.377Z,0.20
2023-03-17T08:11:38.641Z,0.30
2023-03-17T08:14:08.576Z,0.30
2023-03-17T08:16:39.070Z,0.30
2023-03-17T08:22:04.374Z,0.30
2023-03-17T08:24:34.429Z,0.30
2023-03-17T08:29:52.589Z,0.30
2023-03-17T08:32:32.298Z,0.30
2023-03-17T08:35:23.064Z,0.23
2023-03-17T08:38:27.198Z,0.40
2023-03-17T08:44:17.387Z,0.35
2023-03-17T08:46:47.837Z,0.37
2023-03-17T08:49:46.486Z,0.33
2023-03-17T08:52:47.375Z,0.33
2023-03-17T08:55:54.855Z,0.50
2023-03-17T09:01:07.703Z,0.30
2023-03-17T09:03:37.725Z,0.30
2023-03-17T09:06:08.571Z,0.20
2023-03-17T09:08:42.183Z,0.28
2023-03-17T09:11:12.527Z,0.40
2023-03-17T09:13:55.682Z,0.30
2023-03-17T09:16:44.714Z,0.33
2023-03-17T09:19:14.662Z,0.40
2023-03-17T09:21:44.806Z,0.45
2023-03-17T09:24:14.990Z,0.37
2023-03-17T09:26:45.251Z,0.35
2023-03-17T09:29:16.261Z,0.30
2023-03-17T09:31:47.838Z,0.35
2023-03-17T09:34:18.072Z,0.40
2023-03-17T09:36:47.985Z,0.30
2023-03-17T09:39:18.188Z,0.30
2023-03-17T09:41:57.876Z,0.30
2023-03-17T09:44:37.934Z,0.30
2023-03-17T09:47:26.748Z,0.30
2023-03-17T09:50:04.216Z,0.30
2023-03-17T09:52:55.261Z,0.30
2023-03-17T09:58:53.631Z,0.30
2023-03-17T10:01:24.043Z,0.30
2023-03-17T10:03:55.103Z,0.20
2023-03-17T10:06:38.494Z,0.30
2023-03-17T10:09:28.652Z,0.30
2023-03-17T10:12:19.300Z,0.30
2023-03-17T10:14:57.109Z,0.20
2023-03-17T10:17:29.892Z,0.30
2023-03-17T10:20:36.621Z,0.30
2023-03-17T10:23:15.851Z,0.40
2023-03-17T10:26:02.674Z,0.20
2023-03-17T10:29:08.660Z,0.30
2023-03-17T10:31:55.186Z,0.40
2023-03-17T10:34:55.766Z,0.20
2023-03-17T10:37:27.526Z,0.30
2023-03-17T10:39:58.384Z,0.30
2023-03-17T10:42:29.894Z,0.40
2023-03-17T10:45:11.294Z,0.30
2023-03-17T10:47:42.104Z,0.20
2023-03-17T10:50:26.028Z,0.37
2023-03-17T10:53:09.168Z,0.40
2023-03-17T10:55:58.234Z,0.30
2023-03-17T10:58:57.410Z,0.40
2023-03-17T11:01:57.752Z,0.30
2023-03-17T11:11:10.693Z,0.40
2023-03-17T11:14:07.421Z,0.30
2023-03-17T11:16:53.207Z,0.30
2023-03-17T11:19:28.104Z,0.40
2023-03-17T11:22:12.404Z,0.40
2023-03-17T11:27:32.428Z,0.20
2023-03-17T11:30:30.243Z,0.30
2023-03-17T11:33:22.449Z,0.30
2023-03-17T11:36:01.719Z,0.30
2023-03-17T11:38:32.211Z,0.40
2023-03-17T11:41:28.043Z,0.30
2023-03-17T11:44:25.015Z,0.30
2023-03-17T11:47:28.850Z,0.30
2023-03-17T11:50:19.837Z,0.30
2023-03-17T11:53:15.049Z,0.23
2023-03-17T11:56:11.532Z,0.30
2023-03-17T12:02:02.300Z,0.20
2023-03-17T12:04:39.904Z,0.28
2023-03-17T12:07:22.153Z,0.20
2023-03-17T12:10:09.841Z,0.20
2023-03-17T12:12:46.353Z,0.20
2023-03-17T12:15:18.772Z,0.20
2023-03-17T12:21:07.726Z,0.17
2023-03-17T12:23:51.617Z,0.20
2023-03-17T12:32:55.585Z,0.30
2023-03-17T12:35:33.186Z,0.30
2023-03-17T12:41:47.022Z,0.30
2023-03-17T12:45:02.175Z,0.20
2023-03-17T12:47:57.758Z,0.28
2023-03-17T12:51:07.416Z,0.30
2023-03-17T12:53:42.102Z,0.30
2023-03-17T12:56:35.153Z,0.27
2023-03-17T13:02:54.075Z,0.33
2023-03-17T13:06:01.490Z,0.40
2023-03-17T13:08:55.980Z,0.20
2023-03-17T13:11:31.460Z,0.30
2023-03-17T13:14:30.083Z,0.30
2023-03-17T13:20:22.822Z,0.40
2023-03-17T13:23:49.314Z,0.30
2023-03-17T13:26:55.196Z,0.30
2023-03-17T13:36:37.772Z,0.42
2023-03-17T13:39:42.093Z,0.33
2023-03-17T13:45:23.070Z,0.45
2023-03-17T13:47:54.135Z,0.30
2023-03-17T13:50:37.895Z,0.40
2023-03-17T13:53:45.275Z,0.40
2023-03-17T13:56:31.822Z,0.30
2023-03-17T14:02:25.811Z,0.37
2023-03-17T14:08:38.260Z,0.40
2023-03-17T14:11:36.782Z,0.35
2023-03-17T14:14:48.350Z,0.40
2023-03-17T14:17:48.804Z,0.30
2023-03-17T14:20:57.177Z,0.20
2023-03-17T14:26:31.483Z,0.30
2023-03-17T14:29:07.049Z,0.23
2023-03-17T14:31:40.695Z,0.40
2023-03-17T14:34:14.900Z,0.30
2023-03-17T14:36:50.222Z,0.30
2023-03-17T14:39:25.753Z,0.30
2023-03-17T14:45:43.112Z,0.35
2023-03-17T14:51:14.430Z,0.23
2023-03-17T14:56:46.876Z,0.33
2023-03-17T15:02:58.999Z,0.30
2023-03-17T15:12:20.101Z,0.30
2023-03-17T15:15:45.412Z,0.30
2023-03-17T15:18:21.682Z,0.40
2023-03-17T15:21:26.666Z,0.55
2023-03-17T15:23:58.345Z,0.45
2023-03-17T15:26:59.997Z,0.57
2023-03-17T15:30:05.772Z,0.43
2023-03-17T15:33:02.446Z,0.40
2023-03-17T15:35:57.310Z,0.50
2023-03-17T15:39:15.660Z,0.40
2023-03-17T15:47:57.413Z,0.60
2023-03-17T15:50:59.934Z,0.42
2023-03-17T15:54:04.197Z,0.42
2023-03-17T15:56:55.347Z,0.40
2023-03-17T15:59:57.245Z,0.40
2023-03-17T16:02:58.120Z,0.53
2023-03-17T16:06:08.142Z,0.50
2023-03-17T16:09:18.398Z,0.40
2023-03-17T16:12:07.906Z,0.50
2023-03-17T16:15:16.748Z,0.40
2023-03-17T16:18:13.732Z,0.40
2023-03-17T16:24:04.898Z,0.35
2023-03-17T16:30:41.539Z,0.70
2023-03-17T16:33:24.297Z,0.40
2023-03-17T16:39:28.882Z,0.42
2023-03-17T16:42:40.436Z,0.30
2023-03-17T16:45:37.356Z,0.40
2023-03-17T16:51:20.719Z,0.23
2023-03-17T16:54:12.018Z,0.40
2023-03-17T16:57:17.747Z,0.30
2023-03-17T17:00:13.854Z,0.30
2023-03-17T17:06:03.040Z,0.36
2023-03-17T17:11:21.534Z,0.40
2023-03-17T17:13:53.012Z,0.35
2023-03-17T17:16:30.497Z,0.40
2023-03-17T17:19:02.074Z,0.30
2023-03-17T17:21:34.874Z,0.30
2023-03-17T17:24:31.201Z,0.20
2023-03-17T17:27:37.008Z,0.30
2023-03-17T17:30:54.851Z,0.40
2023-03-17T17:33:27.651Z,0.40
2023-03-17T17:39:31.901Z,0.30
2023-03-17T17:42:37.864Z,0.40
2023-03-17T17:45:15.697Z,0.40
2023-03-17T17:48:05.727Z,0.40
2023-03-17T17:51:31.334Z,0.40
2023-03-17T17:53:18.985Z,0.50
2023-03-17T17:55:50.694Z,0.30
2023-03-17T17:58:24.741Z,0.34
2023-03-17T18:00:57.318Z,0.40
2023-03-17T18:03:44.881Z,0.30
2023-03-17T18:06:18.357Z,0.30
2023-03-17T18:15:36.154Z,0.30
2023-03-17T18:18:46.347Z,0.50
2023-03-17T18:21:36.907Z,0.53
2023-03-17T18:27:40.044Z,0.60
2023-03-17T18:30:31.198Z,0.70
2023-03-17T18:33:19.163Z,0.50
2023-03-17T18:38:42.541Z,0.40
2023-03-17T18:41:13.948Z,0.50
2023-03-17T18:43:47.604Z,0.40
2023-03-17T18:46:19.768Z,0.42
2023-03-17T18:48:52.066Z,0.40
2023-03-17T18:51:36.004Z,0.40
2023-03-17T18:54:31.609Z,0.30
2023-03-17T18:57:53.362Z,0.53
2023-03-17T19:00:36.813Z,0.40
2023-03-17T19:03:26.048Z,0.30
2023-03-17T19:06:30.060Z,0.47
2023-03-17T19:09:19.903Z,0.40
2023-03-17T19:11:50.928Z,0.40
2023-03-17T19:14:21.807Z,0.57
2023-03-17T19:16:52.807Z,0.78
2023-03-17T19:19:24.478Z,0.50
2023-03-17T19:21:54.431Z,0.40
2023-03-17T19:24:54.611Z,0.50
2023-03-17T19:28:00.288Z,0.60
2023-03-17T19:31:29.226Z,0.30
2023-03-17T19:34:00.753Z,0.40
2023-03-17T19:36:53.460Z,0.40
2023-03-17T19:39:44.041Z,0.40
2023-03-17T19:42:36.446Z,0.40
2023-03-17T19:45:26.216Z,0.40
2023-03-17T19:47:58.383Z,0.70
2023-03-17T19:50:30.418Z,0.33
2023-03-17T19:53:05.024Z,0.30
2023-03-17T19:55:36.729Z,0.40
2023-03-17T19:58:09.206Z,0.40
2023-03-17T20:00:39.703Z,0.47
2023-03-17T20:03:36.375Z,0.30
2023-03-17T20:12:52.057Z,0.30
2023-03-17T20:15:54.975Z,0.40
2023-03-17T20:18:43.303Z,0.40
2023-03-17T20:27:47.723Z,0.35
2023-03-17T20:30:59.344Z,0.30
2023-03-17T20:33:54.051Z,0.30
2023-03-17T20:42:06.420Z,0.40
2023-03-17T20:44:37.553Z,0.35
2023-03-17T20:47:29.358Z,0.30
2023-03-17T20:50:02.175Z,0.40
2023-03-17T20:52:32.552Z,0.30
2023-03-17T20:55:05.513Z,0.30
2023-03-17T21:01:29.559Z,0.40
2023-03-17T21:04:42.913Z,0.25
2023-03-17T21:07:12.896Z,0.30
2023-03-17T21:09:42.941Z,0.40
2023-03-17T21:15:06.778Z,0.50
2023-03-17T21:17:36.593Z,0.30
2023-03-17T21:20:07.625Z,0.40
2023-03-17T21:22:37.884Z,0.50
2023-03-17T21:25:23.055Z,0.30
2023-03-17T21:28:43.016Z,0.30
2023-03-17T21:31:35.668Z,0.30
2023-03-17T21:34:18.228Z,0.30
2023-03-17T21:37:18.975Z,0.40
2023-03-17T21:39:57.487Z,0.40
2023-03-17T21:43:03.063Z,0.50
2023-03-17T21:46:17.577Z,0.47
2023-03-17T21:48:56.120Z,0.40
2023-03-17T21:54:12.007Z,0.40
2023-03-17T21:56:43.630Z,0.30
2023-03-17T21:59:14.965Z,0.40
2023-03-17T22:01:44.976Z,0.40
2023-03-17T22:04:15.065Z,0.40
2023-03-17T22:07:13.958Z,0.30
2023-03-17T22:10:24.379Z,0.50
2023-03-17T22:13:09.649Z,0.50
2023-03-17T22:16:32.334Z,0.30
2023-03-17T22:19:02.615Z,0.40
2023-03-17T22:22:22.320Z,0.42
2023-03-17T22:25:05.536Z,0.50
2023-03-17T22:27:35.935Z,0.40
2023-03-17T22:30:07.124Z,0.40
2023-03-17T22:32:37.381Z,0.50
2023-03-17T22:35:07.609Z,0.43
2023-03-17T22:37:37.541Z,0.50
2023-03-17T22:40:09.004Z,0.40
2023-03-17T22:43:11.951Z,0.30
2023-03-17T22:46:08.238Z,0.40
2023-03-17T22:49:24.089Z,0.40
2023-03-17T22:52:16.785Z,0.50
2023-03-17T22:55:05.590Z,0.50
2023-03-17T23:00:25.799Z,0.40
2023-03-17T23:02:55.754Z,0.30
2023-03-17T23:05:25.678Z,0.37
2023-03-17T23:07:55.652Z,0.42
2023-03-17T23:10:26.485Z,0.40
2023-03-17T23:13:06.998Z,0.40
2023-03-17T23:15:36.881Z,0.40
2023-03-17T23:18:06.778Z,0.40
2023-03-17T23:20:36.768Z,0.30
2023-03-17T23:23:07.775Z,0.30
2023-03-17T23:25:49.630Z,0.50
2023-03-17T23:28:19.969Z,0.40
2023-03-17T23:37:23.406Z,0.50
2023-03-17T23:40:27.066Z,0.33
2023-03-17T23:43:20.216Z,0.45
2023-03-17T23:46:29.261Z,0.30
2023-03-17T23:49:39.960Z,0.30
2023-03-17T23:58:28.220Z,0.40
